Time;durP1;ratioP1;P1;durP2;ratioP2;P2;SDS_P1;SDS_P2;PMS_P1;PMS_P2;Temp;Humidity;BMP_temperature;BMP_pressure;BME280_temperature;BME280_humidity;BME280_pressure;Samples;Min_cycle;Max_cycle;Signal;HPM_P1;HPM_P2
2024/03/08 00:01:47;;;;;;;;;45.00;41.25;;;;;;;;5066071;28;11511;-81
2024/03/08 00:04:15;;;;;;;;;55.50;43.50;;;;;;;;5067853;28;11614;-82
2024/03/08 00:06:45;;;;;;;;;39.50;36.50;;;;;;;;5068180;28;11545;-81
2024/03/08 00:09:13;;;;;;;;;54.50;43.25;;;;;;;;5066297;28;11545;-82
2024/03/08 00:11:40;;;;;;;;;48.75;40.75;;;;;;;;5069297;28;11518;-82
2024/03/08 00:14:08;;;;;;;;;44.00;38.00;;;;;;;;5070058;28;11543;-83
2024/03/08 00:16:37;;;;;;;;;45.75;37.25;;;;;;;;5073268;28;12259;-82
2024/03/08 00:19:05;;;;;;;;;41.25;35.75;;;;;;;;5064431;28;12138;-82
2024/03/08 00:21:32;;;;;;;;;36.00;34.00;;;;;;;;5064244;28;11660;-82
2024/03/08 00:24:01;;;;;;;;;32.75;30.00;;;;;;;;5069180;28;11534;-83
2024/03/08 00:26:30;;;;;;;;;41.00;35.50;;;;;;;;5052412;28;11567;-82
2024/03/08 00:28:58;;;;;;;;;47.00;39.75;;;;;;;;5070463;28;11571;-82
2024/03/08 00:31:25;;;;;;;;;45.50;40.25;;;;;;;;5067876;28;11567;-82
2024/03/08 00:33:53;;;;;;;;;42.75;37.00;;;;;;;;5070498;28;11569;-82
2024/03/08 00:36:22;;;;;;;;;51.50;42.25;;;;;;;;5070348;28;11568;-81
2024/03/08 00:38:49;;;;;;;;;43.75;39.00;;;;;;;;5070578;28;11550;-83
2024/03/08 00:41:18;;;;;;;;;40.25;37.00;;;;;;;;5070305;28;11590;-83
2024/03/08 00:43:47;;;;;;;;;53.50;41.00;;;;;;;;5070671;28;11569;-83
2024/03/08 00:46:16;;;;;;;;;41.75;37.00;;;;;;;;5070572;28;11527;-82
2024/03/08 00:48:43;;;;;;;;;39.00;36.75;;;;;;;;5072093;28;11533;-83
2024/03/08 00:51:10;;;;;;;;;44.50;39.75;;;;;;;;5085538;28;11572;-83
2024/03/08 00:53:37;;;;;;;;;48.00;42.75;;;;;;;;5088146;28;11582;-83
2024/03/08 00:56:05;;;;;;;;;43.75;39.25;;;;;;;;5072336;28;11522;-83
2024/03/08 00:58:34;;;;;;;;;51.75;39.75;;;;;;;;5070721;28;11552;-83
2024/03/08 01:01:01;;;;;;;;;42.50;36.50;;;;;;;;5067667;28;11563;-83
2024/03/08 01:03:31;;;;;;;;;49.50;41.00;;;;;;;;5070363;28;11575;-83
2024/03/08 01:06:00;;;;;;;;;47.50;40.50;;;;;;;;5070033;28;11659;-83
2024/03/08 01:08:28;;;;;;;;;45.25;40.25;;;;;;;;5070227;28;11576;-82
2024/03/08 01:10:56;;;;;;;;;50.50;43.00;;;;;;;;5070478;28;11662;-83
2024/03/08 01:13:23;;;;;;;;;36.50;36.50;;;;;;;;5072732;28;11687;-83
2024/03/08 01:15:54;;;;;;;;;45.75;41.00;;;;;;;;5073107;28;11599;-83
2024/03/08 01:18:21;;;;;;;;;54.75;45.00;;;;;;;;5071671;28;11538;-83
2024/03/08 01:20:49;;;;;;;;;52.00;41.00;;;;;;;;5064036;28;11536;-83
2024/03/08 01:23:20;;;;;;;;;50.50;41.25;;;;;;;;5072897;28;11791;-83
2024/03/08 01:25:52;;;;;;;;;53.75;39.75;;;;;;;;5075162;28;11543;-83
2024/03/08 01:28:20;;;;;;;;;57.25;44.00;;;;;;;;5076430;28;11578;-83
2024/03/08 01:30:49;;;;;;;;;56.75;44.00;;;;;;;;5071694;28;11505;-82
2024/03/08 01:33:22;;;;;;;;;48.50;42.00;;;;;;;;5068631;28;11680;-82
2024/03/08 01:35:49;;;;;;;;;51.75;40.25;;;;;;;;5069628;28;11576;-82
2024/03/08 01:38:17;;;;;;;;;50.75;43.25;;;;;;;;5068727;28;11527;-82
2024/03/08 01:40:47;;;;;;;;;46.00;39.75;;;;;;;;5067395;28;11686;-82
2024/03/08 01:43:20;;;;;;;;;45.25;39.00;;;;;;;;5068045;28;11701;-83
2024/03/08 01:45:51;;;;;;;;;55.25;42.75;;;;;;;;5068730;28;12460;-82
2024/03/08 01:48:23;;;;;;;;;53.00;45.50;;;;;;;;5058475;28;11625;-81
2024/03/08 01:50:51;;;;;;;;;50.50;41.25;;;;;;;;5066449;28;11554;-82
2024/03/08 01:53:19;;;;;;;;;47.25;41.75;;;;;;;;5069531;28;11572;-83
2024/03/08 01:55:48;;;;;;;;;44.50;39.00;;;;;;;;5069362;28;11651;-82
2024/03/08 01:58:16;;;;;;;;;49.75;43.50;;;;;;;;5070663;28;11540;-82
2024/03/08 02:00:45;;;;;;;;;49.50;39.50;;;;;;;;5067657;28;11578;-82
2024/03/08 02:03:13;;;;;;;;;47.50;40.50;;;;;;;;5071663;28;11539;-82
2024/03/08 02:05:43;;;;;;;;;46.00;40.75;;;;;;;;5069043;28;12377;-82
2024/03/08 02:08:13;;;;;;;;;49.50;42.50;;;;;;;;5069008;28;11543;-83
2024/03/08 02:10:42;;;;;;;;;52.50;41.75;;;;;;;;5067422;28;11603;-83
2024/03/08 02:13:11;;;;;;;;;52.50;45.00;;;;;;;;5065273;28;12443;-83
2024/03/08 02:16:00;;;;;;;;;58.75;47.75;;;;;;;;5067616;28;12317;-83
2024/03/08 02:18:28;;;;;;;;;41.75;38.75;;;;;;;;5050164;28;11520;-83
2024/03/08 02:20:57;;;;;;;;;57.75;47.75;;;;;;;;5069366;28;11565;-82
2024/03/08 02:23:24;;;;;;;;;55.25;44.50;;;;;;;;5068757;28;12329;-82
2024/03/08 02:25:53;;;;;;;;;52.00;43.75;;;;;;;;5069364;28;11548;-83
2024/03/08 02:28:20;;;;;;;;;56.00;43.25;;;;;;;;5069134;28;11554;-82
2024/03/08 02:30:55;;;;;;;;;47.25;41.25;;;;;;;;5073039;28;11490;-82
2024/03/08 02:33:24;;;;;;;;;57.00;47.75;;;;;;;;5072729;28;11549;-82
2024/03/08 02:35:51;;;;;;;;;52.25;42.00;;;;;;;;5072904;28;11543;-82
2024/03/08 02:38:21;;;;;;;;;58.00;46.00;;;;;;;;5071529;28;11671;-82
2024/03/08 02:40:49;;;;;;;;;47.75;40.25;;;;;;;;5073004;28;11545;-82
2024/03/08 02:43:18;;;;;;;;;47.50;41.75;;;;;;;;5073009;28;11579;-82
2024/03/08 02:45:46;;;;;;;;;41.25;37.50;;;;;;;;5070403;28;11561;-82
2024/03/08 02:48:13;;;;;;;;;38.75;36.75;;;;;;;;5072733;28;11515;-82
2024/03/08 02:50:42;;;;;;;;;62.00;42.00;;;;;;;;5070142;28;11638;-82
2024/03/08 02:53:09;;;;;;;;;51.50;45.00;;;;;;;;5062028;28;11963;-82
2024/03/08 02:55:40;;;;;;;;;55.75;44.50;;;;;;;;5072585;28;11508;-83
2024/03/08 02:58:09;;;;;;;;;48.25;40.00;;;;;;;;5073684;28;11519;-82
2024/03/08 03:00:40;;;;;;;;;55.50;44.50;;;;;;;;5071902;28;11478;-82
2024/03/08 03:03:10;;;;;;;;;51.00;41.75;;;;;;;;5040596;28;11694;-82
2024/03/08 03:05:41;;;;;;;;;49.25;42.50;;;;;;;;5075255;28;11548;-82
2024/03/08 03:08:11;;;;;;;;;56.50;44.75;;;;;;;;5076465;28;11550;-81
2024/03/08 03:10:40;;;;;;;;;56.25;46.25;;;;;;;;5073962;28;11620;-81
2024/03/08 03:13:08;;;;;;;;;52.25;44.50;;;;;;;;5076346;28;11523;-81
2024/03/08 03:15:36;;;;;;;;;57.75;48.25;;;;;;;;5075933;28;11535;-81
2024/03/08 03:18:03;;;;;;;;;60.00;48.50;;;;;;;;5071883;28;11623;-81
2024/03/08 03:20:37;;;;;;;;;60.00;48.00;;;;;;;;5070435;28;11540;-81
2024/03/08 03:23:04;;;;;;;;;58.00;47.50;;;;;;;;5068664;28;11567;-82
2024/03/08 03:25:35;;;;;;;;;58.00;45.75;;;;;;;;5060176;28;11565;-83
2024/03/08 03:28:04;;;;;;;;;39.75;38.00;;;;;;;;5072261;28;11661;-82
2024/03/08 03:30:32;;;;;;;;;61.25;47.50;;;;;;;;5071501;28;11461;-83
2024/03/08 03:33:01;;;;;;;;;51.50;42.50;;;;;;;;5071888;28;11548;-83
2024/03/08 03:35:34;;;;;;;;;66.75;49.25;;;;;;;;5077030;28;11674;-83
2024/03/08 03:38:08;;;;;;;;;55.75;44.50;;;;;;;;5080764;28;11524;-82
2024/03/08 03:40:35;;;;;;;;;54.25;43.75;;;;;;;;5056230;28;11556;-83
2024/03/08 03:43:10;;;;;;;;;57.25;45.50;;;;;;;;5065088;28;11529;-83
2024/03/08 03:45:37;;;;;;;;;62.00;48.50;;;;;;;;5061292;28;11563;-83
2024/03/08 03:48:08;;;;;;;;;63.25;49.75;;;;;;;;5072974;28;11627;-83
2024/03/08 03:50:36;;;;;;;;;65.25;50.00;;;;;;;;5074114;28;11604;-82
2024/03/08 03:53:03;;;;;;;;;53.00;43.25;;;;;;;;5070748;28;11523;-82
2024/03/08 03:55:31;;;;;;;;;52.50;43.50;;;;;;;;5071000;28;11544;-83
2024/03/08 03:57:58;;;;;;;;;59.50;47.50;;;;;;;;5069139;28;11630;-81
2024/03/08 04:00:31;;;;;;;;;62.75;47.00;;;;;;;;5070123;28;11611;-82
2024/03/08 04:03:00;;;;;;;;;55.50;41.25;;;;;;;;5069670;28;11605;-82
2024/03/08 04:05:28;;;;;;;;;61.50;48.75;;;;;;;;5071108;28;11680;-83
2024/03/08 04:07:55;;;;;;;;;47.75;42.50;;;;;;;;5070268;28;11566;-83
2024/03/08 04:10:22;;;;;;;;;62.25;46.25;;;;;;;;5071106;28;11568;-82
2024/03/08 04:12:50;;;;;;;;;58.00;47.25;;;;;;;;5074297;28;11602;-83
2024/03/08 04:15:17;;;;;;;;;57.25;45.00;;;;;;;;5070018;28;11601;-83
2024/03/08 04:17:46;;;;;;;;;58.00;43.75;;;;;;;;5070895;28;11690;-83
2024/03/08 04:20:14;;;;;;;;;54.00;43.25;;;;;;;;5070074;28;11552;-82
2024/03/08 04:22:41;;;;;;;;;50.75;42.75;;;;;;;;5069805;28;11626;-82
2024/03/08 04:25:10;;;;;;;;;63.25;49.50;;;;;;;;5070390;28;11666;-82
2024/03/08 04:27:37;;;;;;;;;58.00;45.25;;;;;;;;5069449;28;11506;-82
2024/03/08 04:30:08;;;;;;;;;58.50;48.50;;;;;;;;5068924;28;11614;-82
2024/03/08 04:32:35;;;;;;;;;56.50;45.00;;;;;;;;5069346;28;11618;-83
2024/03/08 04:35:06;;;;;;;;;67.25;47.50;;;;;;;;5070424;28;11539;-83
2024/03/08 04:37:34;;;;;;;;;49.00;44.00;;;;;;;;5070681;28;11556;-83
2024/03/08 04:40:01;;;;;;;;;61.25;48.75;;;;;;;;5070639;28;11583;-82
2024/03/08 04:42:29;;;;;;;;;62.00;48.25;;;;;;;;5068066;28;11605;-82
2024/03/08 04:44:57;;;;;;;;;57.00;43.25;;;;;;;;5067345;28;11551;-81
2024/03/08 04:47:24;;;;;;;;;54.50;47.25;;;;;;;;5073317;28;11687;-80
2024/03/08 04:49:52;;;;;;;;;60.00;44.25;;;;;;;;5073199;28;11657;-81
2024/03/08 04:52:21;;;;;;;;;58.00;44.00;;;;;;;;5074180;28;11550;-81
2024/03/08 04:54:49;;;;;;;;;64.75;52.25;;;;;;;;5074112;28;11544;-82
2024/03/08 04:57:18;;;;;;;;;62.00;49.00;;;;;;;;5074272;28;11583;-82
2024/03/08 04:59:45;;;;;;;;;60.75;47.25;;;;;;;;5073182;28;11619;-81
2024/03/08 05:02:15;;;;;;;;;55.25;45.25;;;;;;;;5070634;28;11629;-82
2024/03/08 05:04:43;;;;;;;;;63.50;49.75;;;;;;;;5071078;28;11666;-81
2024/03/08 05:07:10;;;;;;;;;63.00;49.75;;;;;;;;5069331;28;11673;-83
2024/03/08 05:09:40;;;;;;;;;56.00;46.50;;;;;;;;5069084;28;11687;-84
2024/03/08 05:12:08;;;;;;;;;64.25;50.00;;;;;;;;5051371;28;11549;-83
2024/03/08 05:14:37;;;;;;;;;63.00;51.25;;;;;;;;5069438;28;11538;-83
2024/03/08 05:17:06;;;;;;;;;67.00;54.67;;;;;;;;5067965;28;11524;-83
2024/03/08 05:19:34;;;;;;;;;63.25;51.25;;;;;;;;5068948;28;11565;-83
2024/03/08 05:22:01;;;;;;;;;57.50;44.75;;;;;;;;5068993;28;11549;-83
2024/03/08 05:24:29;;;;;;;;;60.50;48.50;;;;;;;;5069536;28;11708;-83
2024/03/08 05:27:00;;;;;;;;;61.25;46.50;;;;;;;;5069412;28;11542;-83
2024/03/08 05:29:27;;;;;;;;;68.75;50.50;;;;;;;;5067306;28;11718;-83
2024/03/08 05:31:53;;;;;;;;;65.25;50.25;;;;;;;;5069489;28;11574;-82
2024/03/08 05:34:21;;;;;;;;;65.33;51.67;;;;;;;;5069714;28;11553;-83
2024/03/08 05:36:50;;;;;;;;;65.25;52.00;;;;;;;;5073017;28;11525;-82
2024/03/08 05:39:18;;;;;;;;;58.75;47.00;;;;;;;;5070461;28;11594;-83
2024/03/08 05:41:46;;;;;;;;;63.00;51.33;;;;;;;;5069106;28;11539;-82
2024/03/08 05:44:16;;;;;;;;;65.00;51.33;;;;;;;;5066753;28;11534;-82
2024/03/08 05:46:44;;;;;;;;;62.67;49.67;;;;;;;;5059312;28;11566;-82
2024/03/08 05:49:11;;;;;;;;;62.33;49.00;;;;;;;;5067731;28;11577;-82
2024/03/08 05:51:39;;;;;;;;;67.00;53.00;;;;;;;;5068810;28;11550;-82
2024/03/08 05:54:09;;;;;;;;;59.75;45.50;;;;;;;;5067874;28;11558;-83
2024/03/08 05:56:37;;;;;;;;;66.75;54.50;;;;;;;;5068895;28;11581;-82
2024/03/08 05:59:04;;;;;;;;;52.75;45.00;;;;;;;;5068347;28;11653;-82
2024/03/08 06:01:35;;;;;;;;;62.25;49.25;;;;;;;;5067132;28;11610;-84
2024/03/08 06:04:03;;;;;;;;;59.50;49.50;;;;;;;;5067181;28;11597;-74
2024/03/08 06:06:30;;;;;;;;;59.00;45.50;;;;;;;;5068323;28;11586;-76
2024/03/08 06:08:58;;;;;;;;;66.75;52.50;;;;;;;;5067273;28;11619;-82
2024/03/08 06:11:28;;;;;;;;;62.00;47.75;;;;;;;;5067377;28;11602;-81
2024/03/08 06:13:59;;;;;;;;;62.00;49.50;;;;;;;;5066210;28;11532;-78
2024/03/08 06:16:28;;;;;;;;;66.50;49.50;;;;;;;;5067115;28;11539;-78
2024/03/08 06:18:58;;;;;;;;;63.25;50.75;;;;;;;;5058449;28;11561;-77
2024/03/08 06:21:25;;;;;;;;;62.50;47.00;;;;;;;;5071214;28;11547;-75
2024/03/08 06:23:54;;;;;;;;;65.75;49.00;;;;;;;;5077154;28;11565;-76
2024/03/08 06:26:21;;;;;;;;;64.33;51.33;;;;;;;;5071259;28;11525;-79
2024/03/08 06:28:49;;;;;;;;;48.25;40.50;;;;;;;;5057235;28;12317;-80
2024/03/08 06:31:16;;;;;;;;;61.00;44.50;;;;;;;;5064736;28;11481;-78
2024/03/08 06:33:43;;;;;;;;;65.00;52.33;;;;;;;;5068147;28;11587;-83
2024/03/08 06:36:13;;;;;;;;;69.00;54.33;;;;;;;;5060413;28;11561;-80
2024/03/08 06:38:42;;;;;;;;;64.75;50.75;;;;;;;;5070131;28;11524;-79
2024/03/08 06:41:14;;;;;;;;;66.67;51.67;;;;;;;;5069805;28;12273;-79
2024/03/08 06:43:42;;;;;;;;;56.50;44.00;;;;;;;;5070667;28;11541;-77
2024/03/08 06:46:12;;;;;;;;;55.75;40.50;;;;;;;;5056741;28;11675;-78
2024/03/08 06:48:39;;;;;;;;;60.50;49.25;;;;;;;;5070721;28;11757;-75
2024/03/08 06:51:07;;;;;;;;;60.50;47.00;;;;;;;;5067570;28;11636;-76
2024/03/08 06:53:35;;;;;;;;;64.67;52.33;;;;;;;;5069089;28;11656;-78
2024/03/08 06:56:05;;;;;;;;;55.00;44.75;;;;;;;;5067845;28;11582;-76
2024/03/08 06:58:34;;;;;;;;;56.25;45.75;;;;;;;;5067542;28;11543;-76
2024/03/08 07:01:03;;;;;;;;;61.75;50.00;;;;;;;;5055137;28;12398;-76
2024/03/08 07:03:32;;;;;;;;;55.67;47.67;;;;;;;;5067410;28;11662;-76
2024/03/08 07:05:59;;;;;;;;;62.75;50.25;;;;;;;;5066953;28;11689;-76
2024/03/08 07:08:27;;;;;;;;;62.50;48.75;;;;;;;;5067238;28;11552;-78
2024/03/08 07:10:58;;;;;;;;;61.50;48.75;;;;;;;;5066323;28;11562;-77
2024/03/08 07:13:25;;;;;;;;;66.25;51.00;;;;;;;;5067487;28;11583;-75
2024/03/08 07:15:52;;;;;;;;;56.75;46.00;;;;;;;;5070807;28;11538;-78
2024/03/08 07:18:19;;;;;;;;;63.00;49.25;;;;;;;;5071774;28;11567;-75
2024/03/08 07:20:46;;;;;;;;;61.75;48.00;;;;;;;;5071913;28;11564;-78
2024/03/08 07:23:46;;;;;;;;;63.00;49.75;;;;;;;;5072967;28;11613;-75
2024/03/08 07:26:02;;;;;;;;;64.50;50.50;;;;;;;;5071236;28;11573;-75
2024/03/08 07:28:30;;;;;;;;;61.50;49.50;;;;;;;;5063176;28;11696;-77
2024/03/08 07:31:12;;;;;;;;;54.25;42.50;;;;;;;;5070334;28;11512;-75
2024/03/08 07:33:39;;;;;;;;;67.00;53.25;;;;;;;;5061872;28;11633;-75
2024/03/08 07:36:07;;;;;;;;;73.00;58.00;;;;;;;;5067482;28;11562;-79
2024/03/08 07:38:34;;;;;;;;;71.50;53.25;;;;;;;;5069660;28;11800;-77
2024/03/08 07:41:02;;;;;;;;;53.00;42.00;;;;;;;;5056825;28;11694;-77
2024/03/08 07:43:30;;;;;;;;;56.75;48.00;;;;;;;;5070929;28;11567;-78
2024/03/08 07:45:57;;;;;;;;;58.00;46.50;;;;;;;;5057759;28;11610;-76
2024/03/08 07:48:27;;;;;;;;;60.25;49.50;;;;;;;;5070912;28;11543;-75
2024/03/08 07:50:57;;;;;;;;;57.75;45.00;;;;;;;;5069493;28;11577;-77
2024/03/08 07:53:25;;;;;;;;;54.50;45.00;;;;;;;;5036027;28;11593;-76
2024/03/08 07:55:52;;;;;;;;;45.00;40.50;;;;;;;;5070227;28;11529;-76
2024/03/08 07:58:21;;;;;;;;;50.00;39.00;;;;;;;;5069874;28;11554;-77
2024/03/08 08:00:49;;;;;;;;;62.75;50.50;;;;;;;;5069194;28;11494;-78
2024/03/08 08:03:20;;;;;;;;;45.75;40.00;;;;;;;;5070343;28;11630;-76
2024/03/08 08:05:48;;;;;;;;;49.00;43.75;;;;;;;;5069567;28;11536;-75
2024/03/08 08:08:16;;;;;;;;;56.25;45.00;;;;;;;;5070039;28;12369;-77
2024/03/08 08:10:43;;;;;;;;;61.00;44.75;;;;;;;;5068122;28;11588;-75
2024/03/08 08:13:10;;;;;;;;;53.75;42.25;;;;;;;;5070136;28;11569;-76
2024/03/08 08:15:39;;;;;;;;;59.75;44.00;;;;;;;;5070262;28;11552;-78
2024/03/08 08:18:09;;;;;;;;;52.75;42.75;;;;;;;;5069292;28;11677;-77
2024/03/08 08:20:37;;;;;;;;;53.00;44.75;;;;;;;;5070536;28;11537;-78
2024/03/08 08:23:04;;;;;;;;;54.25;44.50;;;;;;;;5068413;28;11544;-75
2024/03/08 08:25:34;;;;;;;;;54.75;44.25;;;;;;;;5069742;28;11552;-78
2024/03/08 08:28:03;;;;;;;;;52.75;40.00;;;;;;;;5072229;28;11521;-75
2024/03/08 08:30:32;;;;;;;;;50.00;43.50;;;;;;;;5073839;28;11624;-77
2024/03/08 08:33:02;;;;;;;;;48.00;42.75;;;;;;;;5074092;28;11560;-77
2024/03/08 08:35:32;;;;;;;;;52.00;43.50;;;;;;;;5073302;28;11531;-76
2024/03/08 08:38:00;;;;;;;;;59.25;47.00;;;;;;;;5072618;28;11531;-76
2024/03/08 08:40:27;;;;;;;;;49.50;40.50;;;;;;;;5073734;28;11607;-78
2024/03/08 08:42:57;;;;;;;;;52.25;42.25;;;;;;;;5072636;28;11605;-78
2024/03/08 08:45:24;;;;;;;;;56.50;43.00;;;;;;;;5062560;28;12340;-76
2024/03/08 08:47:51;;;;;;;;;57.25;44.75;;;;;;;;5070159;28;11590;-80
2024/03/08 08:50:22;;;;;;;;;38.75;36.75;;;;;;;;5071312;28;11673;-74
2024/03/08 08:52:50;;;;;;;;;50.25;40.00;;;;;;;;5070687;28;11554;-77
2024/03/08 08:55:22;;;;;;;;;49.00;41.75;;;;;;;;5069999;28;11673;-76
2024/03/08 08:57:51;;;;;;;;;47.75;39.50;;;;;;;;5069643;28;11516;-77
2024/03/08 09:00:20;;;;;;;;;50.50;40.50;;;;;;;;5067914;28;11539;-77
2024/03/08 09:02:48;;;;;;;;;48.25;40.50;;;;;;;;5068829;28;12332;-76
2024/03/08 09:05:18;;;;;;;;;44.75;38.00;;;;;;;;5068453;28;11690;-76
2024/03/08 09:07:47;;;;;;;;;49.00;42.00;;;;;;;;5068413;28;11561;-76
2024/03/08 09:10:14;;;;;;;;;47.25;40.00;;;;;;;;5067354;28;11581;-77
2024/03/08 09:12:49;;;;;;;;;46.00;39.75;;;;;;;;5068314;28;12374;-77
2024/03/08 09:15:17;;;;;;;;;42.50;38.00;;;;;;;;5068876;28;11552;-78
2024/03/08 09:17:45;;;;;;;;;47.25;40.25;;;;;;;;5069948;28;11517;-76
2024/03/08 09:20:14;;;;;;;;;53.50;42.75;;;;;;;;5068378;28;11534;-81
2024/03/08 09:22:49;;;;;;;;;46.25;36.75;;;;;;;;5068395;28;11506;-78
2024/03/08 09:25:16;;;;;;;;;46.25;38.00;;;;;;;;5068295;28;11654;-77
2024/03/08 09:27:43;;;;;;;;;43.25;35.00;;;;;;;;5067712;28;11480;-76
2024/03/08 09:30:15;;;;;;;;;43.00;37.25;;;;;;;;5067969;28;12419;-77
2024/03/08 09:32:44;;;;;;;;;47.75;36.25;;;;;;;;5068152;28;11466;-76
2024/03/08 09:35:12;;;;;;;;;45.25;39.75;;;;;;;;5067568;28;12270;-76
2024/03/08 09:37:39;;;;;;;;;41.75;34.75;;;;;;;;5066577;28;11577;-77
2024/03/08 09:40:10;;;;;;;;;44.25;37.75;;;;;;;;5067420;28;12173;-77
2024/03/08 09:42:38;;;;;;;;;40.00;37.00;;;;;;;;5067400;28;11472;-73
2024/03/08 09:45:07;;;;;;;;;44.00;38.00;;;;;;;;5058754;28;11517;-74
2024/03/08 09:47:38;;;;;;;;;41.75;37.00;;;;;;;;5063678;28;12265;-74
2024/03/08 09:50:09;;;;;;;;;40.00;36.00;;;;;;;;5067415;28;11200;-78
2024/03/08 09:52:37;;;;;;;;;42.00;34.00;;;;;;;;5066617;28;11030;-75
2024/03/08 09:55:08;;;;;;;;;32.00;29.75;;;;;;;;5068082;28;11061;-74
2024/03/08 09:57:38;;;;;;;;;37.75;33.00;;;;;;;;5067891;28;10919;-74
2024/03/08 10:00:18;;;;;;;;;43.00;36.00;;;;;;;;5067262;28;10924;-77
2024/03/08 10:02:46;;;;;;;;;41.00;35.00;;;;;;;;5057113;28;10841;-78
2024/03/08 10:05:14;;;;;;;;;38.25;33.00;;;;;;;;5066048;28;10781;-77
2024/03/08 10:07:41;;;;;;;;;31.00;27.50;;;;;;;;5066662;28;10729;-78
2024/03/08 10:10:14;;;;;;;;;39.75;33.25;;;;;;;;5065474;28;10600;-80
2024/03/08 10:12:43;;;;;;;;;32.50;32.00;;;;;;;;5068346;28;10631;-80
2024/03/08 10:15:12;;;;;;;;;41.25;36.00;;;;;;;;5068375;28;10522;-77
2024/03/08 10:17:39;;;;;;;;;32.00;31.75;;;;;;;;5070604;28;10429;-78
2024/03/08 10:20:15;;;;;;;;;37.00;34.00;;;;;;;;5070867;28;10304;-77
2024/03/08 10:22:43;;;;;;;;;27.50;26.25;;;;;;;;5069791;28;10365;-77
2024/03/08 10:25:11;;;;;;;;;29.25;29.00;;;;;;;;5068751;28;10238;-77
2024/03/08 10:27:40;;;;;;;;;28.75;27.50;;;;;;;;5071360;28;10045;-78
2024/03/08 10:30:13;;;;;;;;;31.75;30.50;;;;;;;;5068918;28;10030;-78
2024/03/08 10:32:42;;;;;;;;;33.75;29.50;;;;;;;;5066763;28;9957;-77
2024/03/08 10:35:09;;;;;;;;;33.75;30.00;;;;;;;;5067743;28;9801;-77
2024/03/08 10:37:46;;;;;;;;;40.75;34.75;;;;;;;;5066357;28;9780;-77
2024/03/08 10:40:18;;;;;;;;;28.75;26.00;;;;;;;;5069166;28;9853;-77
2024/03/08 10:42:52;;;;;;;;;34.50;31.50;;;;;;;;5068508;28;10591;-77
2024/03/08 10:45:30;;;;;;;;;30.50;30.50;;;;;;;;5068317;28;9722;-77
2024/03/08 10:48:18;;;;;;;;;30.00;26.00;;;;;;;;5067111;28;9635;-77
2024/03/08 10:50:46;;;;;;;;;30.00;25.67;;;;;;;;5069689;28;9554;-77
2024/03/08 10:53:15;;;;;;;;;26.33;24.33;;;;;;;;5070316;28;9393;-78
2024/03/08 10:55:44;;;;;;;;;29.75;26.50;;;;;;;;5070588;28;9412;-75
2024/03/08 10:58:11;;;;;;;;;26.25;24.50;;;;;;;;5071301;28;9311;-75
2024/03/08 11:00:41;;;;;;;;;33.50;31.75;;;;;;;;5070688;28;9498;-76
2024/03/08 11:03:11;;;;;;;;;24.00;24.00;;;;;;;;5074201;28;9581;-76
2024/03/08 11:05:39;;;;;;;;;28.75;26.50;;;;;;;;5075354;28;9471;-75
2024/03/08 11:08:19;;;;;;;;;30.25;27.25;;;;;;;;5072840;28;9490;-75
2024/03/08 11:10:54;;;;;;;;;27.75;27.00;;;;;;;;5071661;28;10335;-77
2024/03/08 11:13:37;;;;;;;;;26.00;25.00;;;;;;;;5070883;28;9629;-76
2024/03/08 11:16:09;;;;;;;;;25.75;25.25;;;;;;;;5071340;28;9547;-76
2024/03/08 11:18:37;;;;;;;;;24.00;23.50;;;;;;;;5071184;28;9597;-76
2024/03/08 11:21:06;;;;;;;;;18.00;18.00;;;;;;;;5070151;28;9745;-78
2024/03/08 11:23:36;;;;;;;;;26.50;23.25;;;;;;;;5070575;28;9870;-77
2024/03/08 11:26:07;;;;;;;;;33.50;30.00;;;;;;;;5070364;28;10480;-77
2024/03/08 11:28:35;;;;;;;;;23.00;23.00;;;;;;;;5062454;28;9978;-77
2024/03/08 11:31:26;;;;;;;;;32.00;29.50;;;;;;;;5070784;28;9794;-80
2024/03/08 11:33:53;;;;;;;;;25.75;25.00;;;;;;;;5064201;28;9929;-77
2024/03/08 11:36:23;;;;;;;;;30.75;27.00;;;;;;;;5071503;28;9558;-75
2024/03/08 11:38:51;;;;;;;;;21.33;21.33;;;;;;;;5071777;28;9548;-78
2024/03/08 11:41:19;;;;;;;;;28.00;26.25;;;;;;;;5062900;28;10111;-79
2024/03/08 11:43:48;;;;;;;;;24.00;23.67;;;;;;;;5059531;28;9488;-77
2024/03/08 11:46:17;;;;;;;;;31.00;27.67;;;;;;;;5069282;28;9308;-74
2024/03/08 11:48:48;;;;;;;;;14.67;12.00;;;;;;;;5070678;28;9025;-76
2024/03/08 11:51:18;;;;;;;;;22.25;20.75;;;;;;;;5067357;28;8932;-76
2024/03/08 11:53:45;;;;;;;;;25.75;21.75;;;;;;;;5063600;28;8853;-76
2024/03/08 11:56:14;;;;;;;;;23.75;21.25;;;;;;;;5063214;28;8904;-76
2024/03/08 11:58:42;;;;;;;;;20.50;18.00;;;;;;;;5059186;28;8830;-76
2024/03/08 12:01:12;;;;;;;;;19.00;19.00;;;;;;;;5058423;28;8805;-76
2024/03/08 12:03:39;;;;;;;;;19.50;19.50;;;;;;;;5062552;28;9588;-74
2024/03/08 12:06:09;;;;;;;;;22.25;19.50;;;;;;;;5065913;28;8851;-76
2024/03/08 12:08:36;;;;;;;;;20.25;17.75;;;;;;;;5065661;28;8813;-76
2024/03/08 12:11:05;;;;;;;;;21.75;21.00;;;;;;;;5062018;28;8884;-74
2024/03/08 12:13:34;;;;;;;;;18.75;18.00;;;;;;;;5065561;28;8901;-75
2024/03/08 12:16:03;;;;;;;;;22.75;17.25;;;;;;;;5071286;28;8845;-76
2024/03/08 12:18:34;;;;;;;;;15.25;15.00;;;;;;;;5061027;28;8842;-79
2024/03/08 12:21:11;;;;;;;;;19.25;16.00;;;;;;;;5065454;28;8955;-76
2024/03/08 12:23:40;;;;;;;;;21.00;18.00;;;;;;;;5061972;28;8885;-76
2024/03/08 12:26:14;;;;;;;;;16.25;12.75;;;;;;;;5068040;28;9781;-77
2024/03/08 12:28:44;;;;;;;;;16.50;15.00;;;;;;;;5065104;28;8828;-75
2024/03/08 12:31:14;;;;;;;;;20.00;18.75;;;;;;;;5062444;28;8803;-78
2024/03/08 12:33:49;;;;;;;;;20.75;18.25;;;;;;;;5062424;28;8842;-75
2024/03/08 12:36:19;;;;;;;;;19.75;18.00;;;;;;;;5068718;28;8836;-77
2024/03/08 12:38:48;;;;;;;;;21.50;17.75;;;;;;;;5069701;28;8959;-78
2024/03/08 12:41:15;;;;;;;;;16.50;16.50;;;;;;;;5063393;28;8858;-78
2024/03/08 12:43:42;;;;;;;;;24.25;18.75;;;;;;;;5068496;28;8958;-77
2024/03/08 12:46:09;;;;;;;;;20.75;20.25;;;;;;;;5055732;28;8840;-75
2024/03/08 12:48:40;;;;;;;;;15.25;15.25;;;;;;;;5069066;28;8882;-76
2024/03/08 12:51:08;;;;;;;;;17.00;16.50;;;;;;;;5068796;28;8853;-76
2024/03/08 12:53:40;;;;;;;;;16.75;15.75;;;;;;;;5066128;28;8953;-77
2024/03/08 12:56:09;;;;;;;;;16.00;15.00;;;;;;;;5056250;28;8913;-80
2024/03/08 12:58:40;;;;;;;;;20.25;20.25;;;;;;;;5067514;28;8832;-77
2024/03/08 13:01:10;;;;;;;;;19.25;17.75;;;;;;;;5068469;28;8812;-78
2024/03/08 13:03:37;;;;;;;;;19.50;19.00;;;;;;;;5055102;28;8840;-80
2024/03/08 13:06:08;;;;;;;;;18.50;15.75;;;;;;;;5058844;28;8861;-76
2024/03/08 13:08:38;;;;;;;;;21.00;20.75;;;;;;;;5063907;28;8868;-77
2024/03/08 13:11:11;;;;;;;;;18.75;18.75;;;;;;;;5068670;28;8856;-76
2024/03/08 13:13:39;;;;;;;;;18.25;17.50;;;;;;;;5056825;28;8879;-78
2024/03/08 13:16:08;;;;;;;;;19.50;18.50;;;;;;;;5055818;28;9892;-76
2024/03/08 13:18:42;;;;;;;;;14.50;14.50;;;;;;;;5067164;28;8837;-77
2024/03/08 13:21:10;;;;;;;;;17.25;17.25;;;;;;;;5064623;28;8856;-76
2024/03/08 13:23:40;;;;;;;;;19.75;19.75;;;;;;;;5070983;28;8837;-76
2024/03/08 13:26:12;;;;;;;;;18.00;16.75;;;;;;;;5059484;28;8881;-76
2024/03/08 13:28:40;;;;;;;;;20.50;18.75;;;;;;;;5060799;28;8863;-76
2024/03/08 13:31:09;;;;;;;;;18.67;15.33;;;;;;;;5059652;28;8809;-75
2024/03/08 13:33:39;;;;;;;;;19.00;19.00;;;;;;;;5066207;28;8888;-75
2024/03/08 13:36:14;;;;;;;;;14.00;11.50;;;;;;;;5064690;28;8829;-76
2024/03/08 13:38:48;;;;;;;;;18.50;17.25;;;;;;;;5066540;28;8975;-77
2024/03/08 13:41:16;;;;;;;;;17.25;17.00;;;;;;;;5058865;28;8893;-77
2024/03/08 13:43:44;;;;;;;;;17.00;17.00;;;;;;;;5064275;28;8844;-76
2024/03/08 13:46:11;;;;;;;;;17.75;17.25;;;;;;;;5056874;28;8987;-77
2024/03/08 13:48:38;;;;;;;;;18.75;17.25;;;;;;;;5067379;28;8848;-76
2024/03/08 13:51:08;;;;;;;;;23.00;21.00;;;;;;;;5061205;28;8840;-75
2024/03/08 13:53:36;;;;;;;;;22.50;20.25;;;;;;;;5055887;28;8831;-75
2024/03/08 13:56:08;;;;;;;;;23.75;21.25;;;;;;;;5055738;28;8847;-76
2024/03/08 13:58:36;;;;;;;;;19.25;19.00;;;;;;;;5068603;28;8860;-76
2024/03/08 14:01:05;;;;;;;;;16.00;16.00;;;;;;;;5065633;28;8811;-75
2024/03/08 14:03:33;;;;;;;;;21.25;19.75;;;;;;;;5054384;28;8875;-78
2024/03/08 14:06:03;;;;;;;;;19.25;19.00;;;;;;;;5054303;28;9646;-78
2024/03/08 14:08:34;;;;;;;;;19.75;18.00;;;;;;;;5068312;28;8864;-75
2024/03/08 14:11:12;;;;;;;;;19.25;19.25;;;;;;;;5061665;28;8868;-77
2024/03/08 14:13:45;;;;;;;;;18.50;17.00;;;;;;;;5072811;28;9627;-76
2024/03/08 14:16:13;;;;;;;;;17.50;17.50;;;;;;;;5061181;28;8845;-76
2024/03/08 14:18:40;;;;;;;;;16.50;16.50;;;;;;;;5059947;28;8849;-77
2024/03/08 14:21:09;;;;;;;;;19.00;17.50;;;;;;;;5057323;28;8969;-76
2024/03/08 14:23:37;;;;;;;;;19.25;17.25;;;;;;;;5060004;28;8860;-76
2024/03/08 14:26:07;;;;;;;;;14.50;14.50;;;;;;;;5058714;28;8854;-76
2024/03/08 14:28:34;;;;;;;;;15.25;15.25;;;;;;;;5053597;28;8831;-77
2024/03/08 14:31:03;;;;;;;;;17.00;15.50;;;;;;;;5062916;28;9749;-79
2024/03/08 14:33:31;;;;;;;;;23.25;22.00;;;;;;;;5056109;28;8868;-77